Time;durP1;ratioP1;P1;durP2;ratioP2;P2;SDS_P1;SDS_P2;PMS_P1;PMS_P2;Temp;Humidity;BMP_temperature;BMP_pressure;BME280_temperature;BME280_humidity;BME280_pressure;Samples;Min_cycle;Max_cycle;Signal;HPM_P1;HPM_P2
2023/04/09 00:00:41;;;;;;;;;;;6.20;99.90;;;;;;5092776;28;19962;-73
2023/04/09 00:03:09;;;;;;;;;;;6.20;99.90;;;;;;5094065;28;20386;-71
2023/04/09 00:05:38;;;;;;;;;;;6.30;99.90;;;;;;5091327;28;20349;-72
2023/04/09 00:08:05;;;;;;;;;;;6.30;99.90;;;;;;5096150;28;20019;-72
2023/04/09 00:10:31;;;;;;;;;;;6.40;99.90;;;;;;5090494;28;19940;-71
2023/04/09 00:12:58;;;;;;;;;;;6.40;99.90;;;;;;5098111;28;20014;-71
2023/04/09 00:15:25;;;;;;;;;;;6.50;99.90;;;;;;5093485;28;20000;-71
2023/04/09 00:17:51;;;;;;;;;;;6.40;99.90;;;;;;5095263;28;19930;-71
2023/04/09 00:20:20;;;;;;;;;;;6.50;99.90;;;;;;5086034;28;20014;-72
2023/04/09 00:22:47;;;;;;;;;;;6.40;99.90;;;;;;5088503;28;19928;-72
2023/04/09 00:25:14;;;;;;;;;;;6.40;99.90;;;;;;5093229;28;19931;-72
2023/04/09 00:27:41;;;;;;;;;;;6.40;99.90;;;;;;5090868;28;19932;-72
2023/04/09 00:30:08;;;;;;;;;;;6.40;99.90;;;;;;5095052;28;19924;-72
2023/04/09 00:32:35;;;;;;;;;;;6.50;99.90;;;;;;5085557;28;19924;-71
2023/04/09 00:35:01;;;;;;;;;;;6.50;99.90;;;;;;5095395;28;19936;-72
2023/04/09 00:37:30;;;;;;;;;;;6.50;99.90;;;;;;5091294;28;19924;-72
2023/04/09 00:39:56;;;;;;;;;;;6.50;99.90;;;;;;5089376;28;20372;-71
2023/04/09 00:42:23;;;;;;;;;;;6.50;99.90;;;;;;5088773;28;19930;-70
2023/04/09 00:44:50;;;;;;;;;;;6.50;99.90;;;;;;5094050;28;20019;-72
2023/04/09 00:47:17;;;;;;;;;;;6.40;99.90;;;;;;5104093;28;19986;-72
2023/04/09 00:49:44;;;;;;;;;;;6.40;99.90;;;;;;5094073;28;19932;-72
2023/04/09 00:52:10;;;;;;;;;;;6.40;99.90;;;;;;5089426;28;20007;-72
2023/04/09 00:54:38;;;;;;;;;;;6.50;99.90;;;;;;5092256;28;20382;-71
2023/04/09 00:57:05;;;;;;;;;;;6.40;99.90;;;;;;5094614;28;19967;-72
2023/04/09 00:59:32;;;;;;;;;;;6.50;99.90;;;;;;5092927;28;20314;-72
2023/04/09 01:01:59;;;;;;;;;;;6.50;99.90;;;;;;5084949;28;19934;-71
2023/04/09 01:04:25;;;;;;;;;;;6.50;99.90;;;;;;5093441;28;20011;-71
2023/04/09 01:06:53;;;;;;;;;;;6.60;99.90;;;;;;5090373;28;19930;-73
2023/04/09 01:09:21;;;;;;;;;;;6.60;99.90;;;;;;5092645;28;20302;-72
2023/04/09 01:12:00;;;;;;;;;;;6.50;99.90;;;;;;5092238;28;19924;-72
2023/04/09 01:14:30;;;;;;;;;;;6.60;99.90;;;;;;5092823;28;19928;-72
2023/04/09 01:16:58;;;;;;;;;;;6.60;99.90;;;;;;5087210;28;19931;-71
2023/04/09 01:19:34;;;;;;;;;;;6.50;99.90;;;;;;5081936;28;19924;-71
2023/04/09 01:22:02;;;;;;;;;;;6.50;99.90;;;;;;5090377;28;19932;-71
2023/04/09 01:24:36;;;;;;;;;;;6.50;99.90;;;;;;5091845;28;19989;-73
2023/04/09 01:27:06;;;;;;;;;;;6.40;99.90;;;;;;5089024;28;20286;-72
2023/04/09 01:29:35;;;;;;;;;;;6.40;99.90;;;;;;5091821;28;20384;-72
2023/04/09 01:32:02;;;;;;;;;;;6.30;99.90;;;;;;5091262;28;20018;-72
2023/04/09 01:34:30;;;;;;;;;;;6.30;99.90;;;;;;5092611;28;20027;-72
2023/04/09 01:36:58;;;;;;;;;;;6.30;99.90;;;;;;5091679;28;19970;-72
2023/04/09 01:39:25;;;;;;;;;;;6.20;99.90;;;;;;5090351;28;19932;-72
2023/04/09 01:41:52;;;;;;;;;;;6.20;99.90;;;;;;5089022;28;19924;-72
2023/04/09 01:44:19;;;;;;;;;;;6.10;99.90;;;;;;5092211;28;20408;-72
2023/04/09 01:46:48;;;;;;;;;;;6.00;99.90;;;;;;5089425;28;19930;-71
2023/04/09 01:49:15;;;;;;;;;;;5.90;99.90;;;;;;5086199;28;19947;-71
2023/04/09 01:51:42;;;;;;;;;;;6.00;99.90;;;;;;5090141;28;20015;-71
2023/04/09 01:54:08;;;;;;;;;;;5.90;99.90;;;;;;5092147;28;19927;-71
2023/04/09 01:56:41;;;;;;;;;;;5.90;99.90;;;;;;5091236;28;19930;-71
2023/04/09 01:59:08;;;;;;;;;;;5.80;99.90;;;;;;5086646;28;19930;-71
2023/04/09 02:01:37;;;;;;;;;;;5.80;99.90;;;;;;5087160;28;20019;-72
2023/04/09 02:04:09;;;;;;;;;;;5.70;99.90;;;;;;5089808;28;19959;-70
2023/04/09 02:06:40;;;;;;;;;;;5.70;99.90;;;;;;5090573;28;19932;-72
2023/04/09 02:09:08;;;;;;;;;;;5.70;99.90;;;;;;5091596;28;20314;-72
2023/04/09 02:11:36;;;;;;;;;;;5.70;99.90;;;;;;5088982;28;19924;-71
2023/04/09 02:14:03;;;;;;;;;;;5.80;99.90;;;;;;5082469;28;19931;-71
2023/04/09 02:16:31;;;;;;;;;;;5.80;99.90;;;;;;5088978;28;19924;-71
2023/04/09 02:19:00;;;;;;;;;;;5.80;99.90;;;;;;5090582;28;19971;-71
2023/04/09 02:21:28;;;;;;;;;;;5.80;99.90;;;;;;5094253;28;20430;-71
2023/04/09 02:23:55;;;;;;;;;;;5.80;99.90;;;;;;5090116;28;19924;-72
2023/04/09 02:26:22;;;;;;;;;;;5.80;99.90;;;;;;5091027;28;19947;-71
2023/04/09 02:28:49;;;;;;;;;;;5.70;99.90;;;;;;5089983;28;19986;-71
2023/04/09 02:31:15;;;;;;;;;;;5.70;99.90;;;;;;5088773;28;19924;-71
2023/04/09 02:33:42;;;;;;;;;;;5.80;99.90;;;;;;5089528;28;19928;-71
2023/04/09 02:36:10;;;;;;;;;;;5.60;99.90;;;;;;5089516;28;20042;-71
2023/04/09 02:38:40;;;;;;;;;;;5.60;99.90;;;;;;5089391;28;19924;-71
2023/04/09 02:41:06;;;;;;;;;;;5.50;99.90;;;;;;5090870;28;19932;-71
2023/04/09 02:43:33;;;;;;;;;;;5.50;99.90;;;;;;5087205;28;20007;-71
2023/04/09 02:46:00;;;;;;;;;;;5.40;99.90;;;;;;5091407;28;19924;-71
2023/04/09 02:48:26;;;;;;;;;;;5.40;99.90;;;;;;5089785;28;20011;-70
2023/04/09 02:50:53;;;;;;;;;;;5.30;99.90;;;;;;5088651;28;19924;-70
2023/04/09 02:53:20;;;;;;;;;;;5.20;99.90;;;;;;5085795;28;19924;-71
2023/04/09 02:55:48;;;;;;;;;;;5.20;99.90;;;;;;5091626;28;19999;-71
2023/04/09 02:58:15;;;;;;;;;;;5.10;99.90;;;;;;5085997;28;19932;-71
2023/04/09 03:00:41;;;;;;;;;;;5.10;99.90;;;;;;5086451;28;19934;-71
2023/04/09 03:03:08;;;;;;;;;;;5.10;99.90;;;;;;5081720;28;20004;-72
2023/04/09 03:05:35;;;;;;;;;;;5.00;99.90;;;;;;5092146;28;20022;-72
2023/04/09 03:08:01;;;;;;;;;;;5.00;99.90;;;;;;5090460;28;20016;-73
2023/04/09 03:10:28;;;;;;;;;;;4.90;99.90;;;;;;5087444;28;19929;-72
2023/04/09 03:12:56;;;;;;;;;;;5.00;99.90;;;;;;5083788;28;20015;-72
2023/04/09 03:15:23;;;;;;;;;;;4.90;99.90;;;;;;5089428;28;19930;-71
2023/04/09 03:17:49;;;;;;;;;;;4.90;99.90;;;;;;5082812;28;20393;-72
2023/04/09 03:20:16;;;;;;;;;;;4.90;99.90;;;;;;5091003;28;20006;-72
2023/04/09 03:22:43;;;;;;;;;;;5.00;99.90;;;;;;5091453;28;20019;-71
2023/04/09 03:25:09;;;;;;;;;;;5.00;99.90;;;;;;5090486;28;20011;-71
2023/04/09 03:27:36;;;;;;;;;;;5.00;99.90;;;;;;5088621;28;19931;-73
2023/04/09 03:30:04;;;;;;;;;;;5.00;99.90;;;;;;5078223;28;20004;-73
2023/04/09 03:32:31;;;;;;;;;;;4.90;99.90;;;;;;5091610;28;19924;-72
2023/04/09 03:34:58;;;;;;;;;;;4.90;99.90;;;;;;5091485;28;19924;-73
2023/04/09 03:37:24;;;;;;;;;;;4.90;99.90;;;;;;5084370;28;19924;-72
2023/04/09 03:39:51;;;;;;;;;;;4.90;99.90;;;;;;5084402;28;19931;-73
2023/04/09 03:42:18;;;;;;;;;;;4.90;99.90;;;;;;5090104;28;20019;-72
2023/04/09 03:44:44;;;;;;;;;;;4.80;99.90;;;;;;5091416;28;20579;-72
2023/04/09 03:47:12;;;;;;;;;;;4.80;99.90;;;;;;5097347;28;20027;-72
2023/04/09 03:49:39;;;;;;;;;;;4.70;99.90;;;;;;5071119;28;19931;-72
2023/04/09 03:52:06;;;;;;;;;;;4.60;99.90;;;;;;5073987;28;19928;-72
2023/04/09 03:54:33;;;;;;;;;;;4.60;99.90;;;;;;5089006;28;20406;-72
2023/04/09 03:57:00;;;;;;;;;;;4.70;99.90;;;;;;5090205;28;19924;-72
2023/04/09 03:59:26;;;;;;;;;;;4.60;99.90;;;;;;5074010;28;19924;-72
2023/04/09 04:01:53;;;;;;;;;;;4.60;99.90;;;;;;5085612;28;19969;-72
2023/04/09 04:04:21;;;;;;;;;;;4.50;99.90;;;;;;5077066;28;19954;-72
2023/04/09 04:06:48;;;;;;;;;;;4.50;99.90;;;;;;5088979;28;20391;-71
2023/04/09 04:09:15;;;;;;;;;;;4.60;99.90;;;;;;5077087;28;19930;-72
2023/04/09 04:11:41;;;;;;;;;;;4.50;99.90;;;;;;5077159;28;20011;-71
2023/04/09 04:14:08;;;;;;;;;;;4.50;99.90;;;;;;5090707;28;19931;-71
2023/04/09 04:16:35;;;;;;;;;;;4.40;99.90;;;;;;5093865;28;20018;-72
2023/04/09 04:19:01;;;;;;;;;;;4.50;99.90;;;;;;5091668;28;19974;-72
2023/04/09 04:21:30;;;;;;;;;;;4.40;99.90;;;;;;5094255;28;20367;-72
2023/04/09 04:23:56;;;;;;;;;;;4.40;99.90;;;;;;5079993;28;19974;-72
2023/04/09 04:26:23;;;;;;;;;;;4.40;99.90;;;;;;5090686;28;19931;-72
2023/04/09 04:28:50;;;;;;;;;;;4.40;99.90;;;;;;5091704;28;20019;-72
2023/04/09 04:31:17;;;;;;;;;;;4.40;99.90;;;;;;5092978;28;20007;-72
2023/04/09 04:33:44;;;;;;;;;;;4.40;99.90;;;;;;5095044;28;20015;-72
2023/04/09 04:36:11;;;;;;;;;;;4.40;99.90;;;;;;5094027;28;20007;-72
2023/04/09 04:38:40;;;;;;;;;;;4.30;99.90;;;;;;5087624;28;20015;-72
2023/04/09 04:41:07;;;;;;;;;;;4.30;99.90;;;;;;5092506;28;19931;-72
2023/04/09 04:43:34;;;;;;;;;;;4.20;99.90;;;;;;5096231;28;20390;-72
2023/04/09 04:46:00;;;;;;;;;;;4.20;99.90;;;;;;5094046;28;19924;-72
2023/04/09 04:48:28;;;;;;;;;;;4.30;99.90;;;;;;5086976;28;19925;-72
2023/04/09 04:50:55;;;;;;;;;;;4.20;99.90;;;;;;5073937;28;19967;-71
2023/04/09 04:53:21;;;;;;;;;;;4.20;99.90;;;;;;5091767;28;20015;-73
2023/04/09 04:55:49;;;;;;;;;;;4.20;99.90;;;;;;5094047;28;20639;-72
2023/04/09 04:58:16;;;;;;;;;;;4.40;99.90;;;;;;5091427;28;19928;-71
2023/04/09 05:00:43;;;;;;;;;;;4.20;99.90;;;;;;5091261;28;20005;-72
2023/04/09 05:03:10;;;;;;;;;;;4.20;99.90;;;;;;5087599;28;19978;-72
2023/04/09 05:05:36;;;;;;;;;;;4.20;99.90;;;;;;5092992;28;19924;-71
2023/04/09 05:08:03;;;;;;;;;;;4.20;99.90;;;;;;5075735;28;19925;-72
2023/04/09 05:10:30;;;;;;;;;;;4.20;99.90;;;;;;5086512;28;19934;-72
2023/04/09 05:12:58;;;;;;;;;;;4.10;99.90;;;;;;5084213;28;19931;-72
2023/04/09 05:15:25;;;;;;;;;;;4.30;99.90;;;;;;5086927;28;20364;-71
2023/04/09 05:17:52;;;;;;;;;;;4.20;99.90;;;;;;5082054;28;19963;-72
2023/04/09 05:20:18;;;;;;;;;;;4.40;99.90;;;;;;5079176;28;19924;-71
2023/04/09 05:22:45;;;;;;;;;;;4.60;99.90;;;;;;5075778;28;19924;-72
2023/04/09 05:25:14;;;;;;;;;;;4.50;99.90;;;;;;5081930;28;19924;-71
2023/04/09 05:27:41;;;;;;;;;;;4.60;99.90;;;;;;5085277;28;19924;-72
2023/04/09 05:30:10;;;;;;;;;;;4.60;99.90;;;;;;5087552;28;19932;-71
2023/04/09 05:32:37;;;;;;;;;;;4.70;99.90;;;;;;5087503;28;20294;-69
2023/04/09 05:35:04;;;;;;;;;;;4.80;99.90;;;;;;5083556;28;20759;-69
2023/04/09 05:37:30;;;;;;;;;;;4.80;99.90;;;;;;5076922;28;20011;-72
2023/04/09 05:39:57;;;;;;;;;;;4.90;99.90;;;;;;5080327;28;19924;-73
2023/04/09 05:42:24;;;;;;;;;;;5.00;99.90;;;;;;5077026;28;19925;-71
2023/04/09 05:44:50;;;;;;;;;;;5.00;99.90;;;;;;5077135;28;19924;-71
2023/04/09 05:47:18;;;;;;;;;;;5.10;99.90;;;;;;5086303;28;19934;-73
2023/04/09 05:49:45;;;;;;;;;;;5.20;99.90;;;;;;5075317;28;20011;-72
2023/04/09 05:52:12;;;;;;;;;;;5.40;99.90;;;;;;5080514;28;20662;-72
2023/04/09 05:54:39;;;;;;;;;;;5.50;99.90;;;;;;5080279;28;20367;-73
2023/04/09 05:57:05;;;;;;;;;;;5.60;99.90;;;;;;5085413;28;20007;-73
2023/04/09 05:59:32;;;;;;;;;;;5.60;99.90;;;;;;5089462;28;20003;-73
2023/04/09 06:01:59;;;;;;;;;;;5.70;99.90;;;;;;5090244;28;19999;-73
2023/04/09 06:04:27;;;;;;;;;;;5.80;99.90;;;;;;5091322;28;19924;-73
2023/04/09 06:06:54;;;;;;;;;;;5.90;99.90;;;;;;5093183;28;19924;-72
2023/04/09 06:09:21;;;;;;;;;;;6.00;99.90;;;;;;5089980;28;20341;-72
2023/04/09 06:11:47;;;;;;;;;;;5.90;99.90;;;;;;5089223;28;19932;-71
2023/04/09 06:14:16;;;;;;;;;;;6.20;99.90;;;;;;5083343;28;20015;-72
2023/04/09 06:16:43;;;;;;;;;;;6.20;99.90;;;;;;5088894;28;19933;-69
2023/04/09 06:19:13;;;;;;;;;;;6.30;99.90;;;;;;5085430;28;19924;-72
2023/04/09 06:21:41;;;;;;;;;;;6.40;99.90;;;;;;5084232;28;19932;-70
2023/04/09 06:24:08;;;;;;;;;;;6.60;99.90;;;;;;5088714;28;19924;-72
2023/04/09 06:26:35;;;;;;;;;;;6.80;99.90;;;;;;5084731;28;19924;-72
2023/04/09 06:29:02;;;;;;;;;;;6.80;99.90;;;;;;5081792;28;20019;-72
2023/04/09 06:31:28;;;;;;;;;;;7.00;99.90;;;;;;5077837;28;19929;-72
2023/04/09 06:33:55;;;;;;;;;;;7.20;99.90;;;;;;5088202;28;19967;-71
2023/04/09 06:36:22;;;;;;;;;;;7.10;99.90;;;;;;5088606;28;19924;-71
2023/04/09 06:38:50;;;;;;;;;;;7.10;99.90;;;;;;5085589;28;19924;-72
2023/04/09 06:41:16;;;;;;;;;;;7.10;99.90;;;;;;5081584;28;19930;-71
2023/04/09 06:43:43;;;;;;;;;;;7.20;99.90;;;;;;5087587;28;19935;-72
2023/04/09 06:46:10;;;;;;;;;;;7.30;99.90;;;;;;5080689;28;19942;-71
2023/04/09 06:48:36;;;;;;;;;;;7.40;99.90;;;;;;5087566;28;19928;-72
2023/04/09 06:51:03;;;;;;;;;;;7.30;99.90;;;;;;5086595;28;19924;-71
2023/04/09 06:53:30;;;;;;;;;;;7.40;99.90;;;;;;5082912;28;20019;-71
2023/04/09 06:55:58;;;;;;;;;;;7.40;99.90;;;;;;5086251;28;21417;-71
2023/04/09 06:58:25;;;;;;;;;;;7.60;99.90;;;;;;5081066;28;19939;-73
2023/04/09 07:00:51;;;;;;;;;;;7.70;99.90;;;;;;5089940;28;20372;-71
2023/04/09 07:03:18;;;;;;;;;;;7.60;99.90;;;;;;5089817;28;19930;-71
2023/04/09 07:05:46;;;;;;;;;;;7.80;99.90;;;;;;5085460;28;19962;-72
2023/04/09 07:08:12;;;;;;;;;;;7.90;99.90;;;;;;5089976;28;19951;-72
2023/04/09 07:10:39;;;;;;;;;;;8.00;99.90;;;;;;5087723;28;20031;-73
2023/04/09 07:13:07;;;;;;;;;;;8.10;99.90;;;;;;5087901;28;20013;-72
2023/04/09 07:15:34;;;;;;;;;;;7.80;99.90;;;;;;5080156;28;19935;-72
2023/04/09 07:18:00;;;;;;;;;;;7.90;99.90;;;;;;5088479;28;20416;-72
2023/04/09 07:20:27;;;;;;;;;;;8.10;99.90;;;;;;5079081;28;19924;-70
2023/04/09 07:22:54;;;;;;;;;;;8.50;99.90;;;;;;5094897;28;19924;-70
2023/04/09 07:25:21;;;;;;;;;;;8.60;99.90;;;;;;5093268;28;19928;-70
2023/04/09 07:27:48;;;;;;;;;;;8.80;99.90;;;;;;5087468;28;19928;-70
2023/04/09 07:30:16;;;;;;;;;;;9.00;99.90;;;;;;5083666;28;20295;-71
2023/04/09 07:32:43;;;;;;;;;;;9.40;99.90;;;;;;5079696;28;20064;-70
2023/04/09 07:35:10;;;;;;;;;;;9.50;99.90;;;;;;5088163;28;20006;-74
2023/04/09 07:37:37;;;;;;;;;;;10.00;99.90;;;;;;5084554;28;20287;-70
2023/04/09 07:40:04;;;;;;;;;;;10.80;99.90;;;;;;5085602;28;20365;-70
2023/04/09 07:42:32;;;;;;;;;;;12.00;99.90;;;;;;5087491;28;20028;-70
2023/04/09 07:44:59;;;;;;;;;;;12.50;99.90;;;;;;5089333;28;19989;-71
2023/04/09 07:47:27;;;;;;;;;;;12.80;99.90;;;;;;5087347;28;19924;-71
2023/04/09 07:49:54;;;;;;;;;;;13.00;99.90;;;;;;5083093;28;19939;-69
2023/04/09 07:52:20;;;;;;;;;;;13.60;99.90;;;;;;5083833;28;19971;-71
2023/04/09 07:54:47;;;;;;;;;;;13.00;99.90;;;;;;5102649;28;19970;-70
2023/04/09 07:57:14;;;;;;;;;;;13.40;99.90;;;;;;5090317;28;20007;-69
2023/04/09 07:59:40;;;;;;;;;;;13.80;99.90;;;;;;5093379;28;19924;-70
2023/04/09 08:02:07;;;;;;;;;;;15.30;99.90;;;;;;5095872;28;19931;-70
2023/04/09 08:04:35;;;;;;;;;;;16.20;99.90;;;;;;5093654;28;19971;-70
2023/04/09 08:07:02;;;;;;;;;;;16.20;99.90;;;;;;5094439;28;20404;-70
2023/04/09 08:09:28;;;;;;;;;;;16.80;96.70;;;;;;5094857;28;19931;-70
2023/04/09 08:11:56;;;;;;;;;;;16.30;96.90;;;;;;5089472;28;19964;-70
2023/04/09 08:14:22;;;;;;;;;;;16.80;97.50;;;;;;5090026;28;19932;-70
2023/04/09 08:16:49;;;;;;;;;;;17.90;95.20;;;;;;5095165;28;20007;-71
2023/04/09 08:19:17;;;;;;;;;;;19.20;86.20;;;;;;5094931;28;19931;-71
2023/04/09 08:21:47;;;;;;;;;;;19.60;76.10;;;;;;5095171;28;19961;-71
2023/04/09 08:24:14;;;;;;;;;;;20.20;69.20;;;;;;5094635;28;20333;-71
2023/04/09 08:26:41;;;;;;;;;;;20.50;62.00;;;;;;5093938;28;19924;-70
2023/04/09 08:29:09;;;;;;;;;;;19.30;65.00;;;;;;5082020;28;20023;-70
2023/04/09 08:31:36;;;;;;;;;;;19.90;63.00;;;;;;5077590;28;19989;-70
2023/04/09 08:34:02;;;;;;;;;;;19.30;63.80;;;;;;5074099;28;19928;-69
2023/04/09 08:36:30;;;;;;;;;;;17.00;67.90;;;;;;5078441;28;20023;-70
2023/04/09 08:38:59;;;;;;;;;;;16.80;74.40;;;;;;5094357;28;19924;-71
2023/04/09 08:41:27;;;;;;;;;;;19.00;70.20;;;;;;5094563;28;19931;-71
2023/04/09 08:43:54;;;;;;;;;;;20.60;61.10;;;;;;5083114;28;20010;-71
2023/04/09 08:46:21;;;;;;;;;;;21.10;57.40;;;;;;5080983;28;19924;-71
2023/04/09 08:48:48;;;;;;;;;;;21.20;55.70;;;;;;5093773;28;20105;-71
2023/04/09 08:51:15;;;;;;;;;;;20.90;55.50;;;;;;5088340;28;19990;-71
2023/04/09 08:53:43;;;;;;;;;;;21.30;53.40;;;;;;5074287;28;19924;-71
2023/04/09 08:56:12;;;;;;;;;;;22.20;50.70;;;;;;5084113;28;20362;-70
2023/04/09 08:58:41;;;;;;;;;;;21.80;49.80;;;;;;5094230;28;20047;-70
2023/04/09 09:01:17;;;;;;;;;;;22.30;49.70;;;;;;5093380;28;19927;-72
2023/04/09 09:03:52;;;;;;;;;;;18.60;53.80;;;;;;5090437;28;19924;-70
2023/04/09 09:06:21;;;;;;;;;;;16.10;61.00;;;;;;5073789;28;19931;-70
2023/04/09 09:08:59;;;;;;;;;;;17.90;67.00;;;;;;5073948;28;20398;-69
2023/04/09 09:11:29;;;;;;;;;;;19.20;59.70;;;;;;5074272;28;19924;-70
2023/04/09 09:13:59;;;;;;;;;;;18.00;57.00;;;;;;5073807;28;19928;-70
2023/04/09 09:16:26;;;;;;;;;;;18.50;59.10;;;;;;5088456;28;19978;-71
2023/04/09 09:18:54;;;;;;;;;;;19.10;58.40;;;;;;5093999;28;20284;-70
2023/04/09 09:21:21;;;;;;;;;;;20.10;56.40;;;;;;5092566;28;19928;-70
2023/04/09 09:23:49;;;;;;;;;;;20.40;54.00;;;;;;5075571;28;20011;-71
2023/04/09 09:26:17;;;;;;;;;;;21.00;52.20;;;;;;5073429;28;20326;-70
2023/04/09 09:28:45;;;;;;;;;;;20.40;53.70;;;;;;5093501;28;19924;-69
2023/04/09 09:31:12;;;;;;;;;;;21.40;50.90;;;;;;5092597;28;20034;-70
2023/04/09 09:33:39;;;;;;;;;;;22.10;49.30;;;;;;5094083;28;19931;-70
2023/04/09 09:36:08;;;;;;;;;;;22.10;46.50;;;;;;5089136;28;20388;-69
2023/04/09 09:38:35;;;;;;;;;;;22.00;45.60;;;;;;5074868;28;19947;-69
2023/04/09 09:41:16;;;;;;;;;;;20.90;48.20;;;;;;5090154;28;20390;-70
2023/04/09 09:43:42;;;;;;;;;;;19.20;48.00;;;;;;5090881;28;20394;-70
2023/04/09 09:46:11;;;;;;;;;;;19.40;53.10;;;;;;5082030;28;19975;-70
2023/04/09 09:48:37;;;;;;;;;;;21.00;48.50;;;;;;5093690;28;19928;-69
2023/04/09 09:51:08;;;;;;;;;;;19.80;47.10;;;;;;5092924;28;19924;-69
2023/04/09 09:53:35;;;;;;;;;;;18.10;50.80;;;;;;5089915;28;19924;-70
2023/04/09 09:56:04;;;;;;;;;;;16.80;54.50;;;;;;5073412;28;19935;-70
2023/04/09 09:58:32;;;;;;;;;;;15.90;56.40;;;;;;5072825;28;19943;-69
2023/04/09 10:01:00;;;;;;;;;;;15.20;59.90;;;;;;5078671;28;19924;-70
2023/04/09 10:03:29;;;;;;;;;;;15.20;59.10;;;;;;5092771;28;20010;-70
2023/04/09 10:05:57;;;;;;;;;;;15.20;61.50;;;;;;5092579;28;19928;-70
2023/04/09 10:08:24;;;;;;;;;;;15.20;60.50;;;;;;5076596;28;19928;-69
2023/04/09 10:10:51;;;;;;;;;;;14.40;65.60;;;;;;5093165;28;19925;-70
2023/04/09 10:13:21;;;;;;;;;;;14.20;79.10;;;;;;5085638;28;20022;-71
2023/04/09 10:15:48;;;;;;;;;;;14.00;82.20;;;;;;5091141;28;19924;-70
2023/04/09 10:18:16;;;;;;;;;;;14.50;87.20;;;;;;5092898;28;20355;-69
2023/04/09 10:20:49;;;;;;;;;;;14.80;82.60;;;;;;5093024;28;20318;-69
2023/04/09 10:23:21;;;;;;;;;;;15.10;82.10;;;;;;5091812;28;19924;-70
2023/04/09 10:25:48;;;;;;;;;;;15.40;83.30;;;;;;5090299;28;19924;-71
2023/04/09 10:28:16;;;;;;;;;;;15.70;82.30;;;;;;5087694;28;19931;-71
2023/04/09 10:30:43;;;;;;;;;;;15.80;79.40;;;;;;5098698;28;19927;-70
2023/04/09 10:33:11;;;;;;;;;;;15.20;82.20;;;;;;5092608;28;19930;-70
2023/04/09 10:35:37;;;;;;;;;;;14.20;93.40;;;;;;5092072;28;19975;-70
2023/04/09 10:38:08;;;;;;;;;;;14.30;94.30;;;;;;5089094;28;19932;-68
2023/04/09 10:40:35;;;;;;;;;;;14.40;95.50;;;;;;5093237;28;19977;-70
2023/04/09 10:43:04;;;;;;;;;;;14.70;94.40;;;;;;5092907;28;19924;-70
2023/04/09 10:45:39;;;;;;;;;;;14.70;95.90;;;;;;5093192;28;19924;-70
2023/04/09 10:48:06;;;;;;;;;;;14.40;95.20;;;;;;5091068;28;19928;-70
2023/04/09 10:50:35;;;;;;;;;;;14.40;98.40;;;;;;5092064;28;19928;-70
2023/04/09 10:53:03;;;;;;;;;;;15.00;79.00;;;;;;5083871;28;20298;-71
2023/04/09 10:55:32;;;;;;;;;;;15.10;76.20;;;;;;5072607;28;19924;-72
2023/04/09 10:57:59;;;;;;;;;;;15.40;82.80;;;;;;5074372;28;19932;-70
2023/04/09 11:00:26;;;;;;;;;;;15.40;96.00;;;;;;5092079;28;20361;-70
2023/04/09 11:03:16;;;;;;;;;;;15.00;97.50;;;;;;5091846;28;19967;-69
2023/04/09 11:05:43;;;;;;;;;;;14.80;98.90;;;;;;5091652;28;19928;-69
2023/04/09 11:08:10;;;;;;;;;;;;;;;;;;5071640;28;20291;-70
2023/04/09 11:10:37;;;;;;;;;;;;;;;;;;5082927;28;20382;-70
2023/04/09 11:13:04;;;;;;;;;;;;;;;;;;5079203;28;20379;-70
2023/04/09 11:15:31;;;;;;;;;;;;;;;;;;5089200;28;20643;-69
2023/04/09 11:17:58;;;;;;;;;;;;;;;;;;5091451;28;19924;-69
2023/04/09 11:20:25;;;;;;;;;;;;;;;;;;5084619;28;20015;-70
2023/04/09 11:22:52;;;;;;;;;;;;;;;;;;5084239;28;19932;-70
2023/04/09 11:25:21;;;;;;;;;;;16.00;78.80;;;;;;5089373;28;19924;-70
2023/04/09 11:27:47;;;;;;;;;;;16.10;79.40;;;;;;5096156;28;19932;-70
2023/04/09 11:30:14;;;;;;;;;;;15.90;82.30;;;;;;5092251;28;19974;-70
2023/04/09 11:32:41;;;;;;;;;;;16.10;79.50;;;;;;5094619;28;20034;-70
2023/04/09 11:35:12;;;;;;;;;;;16.30;77.40;;;;;;5098715;28;19962;-70
2023/04/09 11:37:38;;;;;;;;;;;16.30;76.70;;;;;;5103833;28;19932;-73
2023/04/09 11:40:06;;;;;;;;;;;16.50;78.00;;;;;;5094739;28;19967;-72
2023/04/09 11:42:35;;;;;;;;;;;16.40;76.50;;;;;;5091872;28;19924;-74
2023/04/09 11:45:02;;;;;;;;;;;16.60;76.30;;;;;;5095991;28;19932;-71
2023/04/09 11:47:29;;;;;;;;;;;16.50;76.40;;;;;;5099440;28;20019;-72
2023/04/09 11:49:55;;;;;;;;;;;16.70;79.90;;;;;;5093015;28;19931;-72
2023/04/09 11:52:22;;;;;;;;;;;;;;;;;;5097092;28;19934;-72
2023/04/09 11:54:50;;;;;;;;;;;;;;;;;;5087489;28;19971;-72
2023/04/09 11:57:17;;;;;;;;;;;;;;;;;;5094393;28;20301;-73
2023/04/09 11:59:44;;;;;;;;;;;;;;;;;;5098126;28;19956;-75
2023/04/09 12:02:11;;;;;;;;;;;;;;;;;;5087357;28;19931;-73
2023/04/09 12:04:38;;;;;;;;;;;;;;;;;;5093903;28;19930;-72
2023/04/09 12:07:05;;;;;;;;;;;;;;;;;;5088394;28;19931;-73
2023/04/09 12:09:32;;;;;;;;;;;;;;;;;;5088579;28;19972;-73
2023/04/09 12:12:00;;;;;;;;;;;;;;;;;;5100801;28;19996;-72
2023/04/09 12:14:27;;;;;;;;;;;;;;;;;;5093047;28;19932;-72
2023/04/09 12:16:54;;;;;;;;;;;;;;;;;;5093691;28;20430;-72
2023/04/09 12:19:21;;;;;;;;;;;;;;;;;;5096557;28;20392;-71
2023/04/09 12:21:48;;;;;;;;;;;;;;;;;;5090610;28;19924;-72
2023/04/09 12:24:15;;;;;;;;;;;;;;;;;;5090192;28;19970;-72
2023/04/09 12:26:42;;;;;;;;;;;;;;;;;;5096354;28;19940;-72
2023/04/09 12:29:09;;;;;;;;;;;;;;;;;;5093769;28;19924;-72
2023/04/09 12:31:36;;;;;;;;;;;;;;;;;;5093235;28;19924;-71
2023/04/09 12:34:03;;;;;;;;;;;;;;;;;;5085811;28;19924;-70
2023/04/09 12:36:30;;;;;;;;;;;;;;;;;;5086580;28;19985;-71
2023/04/09 12:38:57;;;;;;;;;;;;;;;;;;5089920;28;19931;-72
2023/04/09 12:41:24;;;;;;;;;;;;;;;;;;5084647;28;19979;-71
2023/04/09 12:43:51;;;;;;;;;;;;;;;;;;5125080;22;19924;-72
2023/04/09 12:46:18;;;;;;;;;;;;;;;;;;5063973;28;19939;-71
2023/04/09 12:48:45;;;;;;;;;;;;;;;;;;5069349;28;20371;-71
2023/04/09 12:51:13;;;;;;;;;;;;;;;;;;5063414;28;20247;-72
2023/04/09 12:53:40;;;;;;;;;;;;;;;;;;5063525;28;19970;-72
2023/04/09 12:56:07;;;;;;;;;;;;;;;;;;5080091;22;19935;-71
2023/04/09 12:58:34;;;;;;;;;;;;;;;;;;5076342;28;19928;-70
2023/04/09 13:01:03;;;;;;;;;;;;;;;;;;5066560;28;19930;-72
2023/04/09 13:03:30;;;;;;;;;;;;;;;;;;5064948;28;20319;-69
2023/04/09 13:05:57;;;;;;;;;;;;;;;;;;5063532;28;19932;-71
2023/04/09 13:08:24;;;;;;;;;;;;;;;;;;5062958;28;19925;-70
2023/04/09 13:10:51;;;;;;;;;;;;;;;;;;5067477;28;19925;-71
2023/04/09 13:13:18;;;;;;;;;;;;;;;;;;5064127;28;19931;-70
2023/04/09 13:15:45;;;;;;;;;;;;;;;;;;5066464;28;19960;-70
2023/04/09 13:18:12;;;;;;;;;;;;;;;;;;5058008;28;19925;-71
2023/04/09 13:20:39;;;;;;;;;;;;;;;;;;5061375;28;19929;-71
2023/04/09 13:23:06;;;;;;;;;;;;;;;;;;5061401;28;19933;-71
2023/04/09 13:25:33;;;;;;;;;;;;;;;;;;5054996;28;20470;-70
2023/04/09 13:28:00;;;;;;;;;;;;;;;;;;5059662;28;19983;-69
2023/04/09 13:30:27;;;;;;;;;;;;;;;;;;5060333;28;19931;-72
2023/04/09 13:32:54;;;;;;;;;;;;;;;;;;5085553;22;19931;-71
2023/04/09 13:35:21;;;;;;;;;;;;;;;;;;5064908;28;19930;-70
2023/04/09 13:37:48;;;;;;;;;;;;;;;;;;5067914;28;20391;-71
2023/04/09 13:40:15;;;;;;;;;;;;;;;;;;5071132;28;20379;-72
2023/04/09 13:42:42;;;;;;;;;;;;;;;;;;5069476;28;19971;-72
2023/04/09 13:45:09;;;;;;;;;;;;;;;;;;5069107;28;19940;-70
2023/04/09 13:47:36;;;;;;;;;;;;;;;;;;5072184;28;19924;-71
2023/04/09 13:50:03;;;;;;;;;;;;;;;;;;5067339;28;20578;-71
2023/04/09 13:52:30;;;;;;;;;;;;;;;;;;5061944;28;20338;-70
2023/04/09 13:54:57;;;;;;;;;;;;;;;;;;5062779;28;19925;-71
2023/04/09 13:57:24;;;;;;;;;;;;;;;;;;5068710;28;20011;-71
2023/04/09 13:59:51;;;;;;;;;;;;;;;;;;5058389;28;19931;-70
2023/04/09 14:02:19;;;;;;;;;;;;;;;;;;5070022;28;20469;-70
2023/04/09 14:04:46;;;;;;;;;;;;;;;;;;5065632;28;20423;-71
2023/04/09 14:07:13;;;;;;;;;;;;;;;;;;5063620;28;20416;-70
2023/04/09 14:09:40;;;;;;;;;;;;;;;;;;5065810;28;19924;-70
2023/04/09 14:12:16;;;;;;;;;;;;;;;;;;5104864;27;19924;-71
2023/04/09 14:14:43;;;;;;;;;;;;;;;;;;5098904;28;19924;-70
2023/04/09 14:17:10;;;;;;;;;;;;;;;;;;5103683;28;19924;-71
2023/04/09 14:19:38;;;;;;;;;;;;;;;;;;5097814;28;20015;-71
2023/04/09 14:22:06;;;;;;;;;;;;;;;;;;5108778;28;19946;-71
2023/04/09 14:24:38;;;;;;;;;;;;;;;;;;5098192;28;19924;-71
2023/04/09 14:27:05;;;;;;;;;;;;;;;;;;5104357;28;19933;-71
2023/04/09 14:29:32;;;;;;;;;;;;;;;;;;5099814;28;19924;-70
2023/04/09 14:31:59;;;;;;;;;;;;;;;;;;5101732;28;20011;-70
2023/04/09 14:34:26;;;;;;;;;;;;;;;;;;5107863;28;20010;-70
2023/04/09 14:36:53;;;;;;;;;;;;;;;;;;5106906;28;20027;-70
2023/04/09 14:39:20;;;;;;;;;;;;;;;;;;5106314;28;19924;-71
2023/04/09 14:41:47;;;;;;;;;;;;;;;;;;5099258;28;19967;-70
2023/04/09 14:44:14;;;;;;;;;;;;;;;;;;5099150;28;19930;-70
2023/04/09 14:46:41;;;;;;;;;;;;;;;;;;5106376;28;19924;-70
2023/04/09 14:49:08;;;;;;;;;;;;;;;;;;5102794;28;20314;-70
2023/04/09 14:51:36;;;;;;;;;;;;;;;;;;5106850;28;20506;-70
2023/04/09 14:54:03;;;;;;;;;;;;;;;;;;5107579;28;19931;-70